sensor_id;sensor_type;location;lat;lon;timestamp;P1;durP1;ratioP1;P2;durP2;ratioP2
40244;SDS011;25963;42.694;23.600;2022-10-20T00:01:14;30.55;;;21.13;;
40244;SDS011;25963;42.694;23.600;2022-10-20T00:03:41;32.28;;;22.58;;
40244;SDS011;25963;42.694;23.600;2022-10-20T00:06:14;27.98;;;21.63;;
40244;SDS011;25963;42.694;23.600;2022-10-20T00:08:42;26.80;;;20.55;;
40244;SDS011;25963;42.694;23.600;2022-10-20T00:11:08;30.65;;;21.63;;
40244;SDS011;25963;42.694;23.600;2022-10-20T00:13:36;30.08;;;21.58;;
40244;SDS011;25963;42.694;23.600;2022-10-20T00:16:02;36.30;;;22.52;;
40244;SDS011;25963;42.694;23.600;2022-10-20T00:18:28;35.25;;;21.75;;
40244;SDS011;25963;42.694;23.600;2022-10-20T00:20:54;32.50;;;21.45;;
40244;SDS011;25963;42.694;23.600;2022-10-20T00:23:19;30.58;;;22.08;;
40244;SDS011;25963;42.694;23.600;2022-10-20T00:25:45;29.67;;;22.98;;
40244;SDS011;25963;42.694;23.600;2022-10-20T00:28:10;26.30;;;19.75;;
40244;SDS011;25963;42.694;23.600;2022-10-20T00:30:36;28.73;;;21.70;;
40244;SDS011;25963;42.694;23.600;2022-10-20T00:33:02;25.90;;;20.67;;
40244;SDS011;25963;42.694;23.600;2022-10-20T00:35:29;26.70;;;20.02;;
40244;SDS011;25963;42.694;23.600;2022-10-20T00:37:55;31.70;;;20.70;;
40244;SDS011;25963;42.694;23.600;2022-10-20T00:40:21;30.45;;;20.27;;
40244;SDS011;25963;42.694;23.600;2022-10-20T00:42:47;31.63;;;21.45;;
40244;SDS011;25963;42.694;23.600;2022-10-20T00:45:14;27.08;;;19.85;;
40244;SDS011;25963;42.694;23.600;2022-10-20T00:47:48;27.33;;;20.77;;
40244;SDS011;25963;42.694;23.600;2022-10-20T00:50:23;27.35;;;21.60;;
40244;SDS011;25963;42.694;23.600;2022-10-20T00:52:52;26.90;;;20.60;;
40244;SDS011;25963;42.694;23.600;2022-10-20T00:55:19;21.38;;;15.07;;
40244;SDS011;25963;42.694;23.600;2022-10-20T00:57:49;17.45;;;13.57;;
40244;SDS011;25963;42.694;23.600;2022-10-20T01:00:17;17.58;;;13.65;;
40244;SDS011;25963;42.694;23.600;2022-10-20T01:02:43;20.10;;;15.82;;
40244;SDS011;25963;42.694;23.600;2022-10-20T01:05:09;19.88;;;15.93;;
40244;SDS011;25963;42.694;23.600;2022-10-20T01:07:34;25.52;;;17.77;;
40244;SDS011;25963;42.694;23.600;2022-10-20T01:10:00;21.60;;;17.30;;
40244;SDS011;25963;42.694;23.600;2022-10-20T01:12:29;21.40;;;16.25;;
40244;SDS011;25963;42.694;23.600;2022-10-20T01:15:11;20.35;;;15.75;;
40244;SDS011;25963;42.694;23.600;2022-10-20T01:18:11;19.42;;;16.05;;
40244;SDS011;25963;42.694;23.600;2022-10-20T01:21:19;26.65;;;17.45;;
40244;SDS011;25963;42.694;23.600;2022-10-20T01:29:41;33.88;;;24.15;;
40244;SDS011;25963;42.694;23.600;2022-10-20T01:32:25;37.90;;;27.25;;
40244;SDS011;25963;42.694;23.600;2022-10-20T01:35:09;41.35;;;30.65;;
40244;SDS011;25963;42.694;23.600;2022-10-20T01:40:50;40.50;;;29.33;;
40244;SDS011;25963;42.694;23.600;2022-10-20T01:43:34;40.17;;;29.02;;
40244;SDS011;25963;42.694;23.600;2022-10-20T01:46:03;37.75;;;29.98;;
40244;SDS011;25963;42.694;23.600;2022-10-20T01:48:32;42.03;;;29.77;;
40244;SDS011;25963;42.694;23.600;2022-10-20T01:50:59;40.15;;;30.13;;
40244;SDS011;25963;42.694;23.600;2022-10-20T01:53:26;38.20;;;29.58;;
40244;SDS011;25963;42.694;23.600;2022-10-20T01:55:53;39.28;;;30.17;;
40244;SDS011;25963;42.694;23.600;2022-10-20T02:01:08;41.95;;;29.77;;
40244;SDS011;25963;42.694;23.600;2022-10-20T02:06:29;35.58;;;28.30;;
40244;SDS011;25963;42.694;23.600;2022-10-20T02:09:02;39.22;;;28.30;;
40244;SDS011;25963;42.694;23.600;2022-10-20T02:14:06;38.78;;;28.90;;
40244;SDS011;25963;42.694;23.600;2022-10-20T02:17:16;40.67;;;29.73;;
40244;SDS011;25963;42.694;23.600;2022-10-20T02:19:25;39.35;;;30.13;;
40244;SDS011;25963;42.694;23.600;2022-10-20T02:21:56;39.40;;;29.15;;
40244;SDS011;25963;42.694;23.600;2022-10-20T02:24:22;35.95;;;28.70;;
40244;SDS011;25963;42.694;23.600;2022-10-20T02:26:52;41.92;;;29.85;;
40244;SDS011;25963;42.694;23.600;2022-10-20T02:29:22;35.15;;;29.05;;
40244;SDS011;25963;42.694;23.600;2022-10-20T02:31:51;45.00;;;30.52;;
40244;SDS011;25963;42.694;23.600;2022-10-20T02:34:17;36.38;;;30.02;;
40244;SDS011;25963;42.694;23.600;2022-10-20T02:36:42;41.45;;;28.48;;
40244;SDS011;25963;42.694;23.600;2022-10-20T02:39:08;41.90;;;29.08;;
40244;SDS011;25963;42.694;23.600;2022-10-20T02:41:34;39.03;;;30.92;;
40244;SDS011;25963;42.694;23.600;2022-10-20T02:44:00;42.08;;;31.65;;
40244;SDS011;25963;42.694;23.600;2022-10-20T02:46:25;35.95;;;28.40;;
40244;SDS011;25963;42.694;23.600;2022-10-20T02:48:51;40.72;;;30.98;;
40244;SDS011;25963;42.694;23.600;2022-10-20T02:51:16;41.08;;;29.23;;
40244;SDS011;25963;42.694;23.600;2022-10-20T02:53:42;37.58;;;29.55;;
40244;SDS011;25963;42.694;23.600;2022-10-20T02:56:08;37.53;;;29.50;;
40244;SDS011;25963;42.694;23.600;2022-10-20T02:58:34;41.90;;;30.08;;
40244;SDS011;25963;42.694;23.600;2022-10-20T03:01:00;39.08;;;31.48;;
40244;SDS011;25963;42.694;23.600;2022-10-20T03:03:26;41.50;;;30.70;;
40244;SDS011;25963;42.694;23.600;2022-10-20T03:05:51;37.15;;;28.95;;
40244;SDS011;25963;42.694;23.600;2022-10-20T03:08:17;41.17;;;31.83;;
40244;SDS011;25963;42.694;23.600;2022-10-20T03:10:42;39.78;;;31.30;;
40244;SDS011;25963;42.694;23.600;2022-10-20T03:13:08;45.38;;;31.98;;
40244;SDS011;25963;42.694;23.600;2022-10-20T03:15:35;44.60;;;31.48;;
40244;SDS011;25963;42.694;23.600;2022-10-20T03:18:01;38.05;;;30.65;;
40244;SDS011;25963;42.694;23.600;2022-10-20T03:20:26;41.17;;;30.60;;
40244;SDS011;25963;42.694;23.600;2022-10-20T03:22:52;39.60;;;29.27;;
40244;SDS011;25963;42.694;23.600;2022-10-20T03:25:17;40.05;;;28.95;;
40244;SDS011;25963;42.694;23.600;2022-10-20T03:27:43;37.85;;;29.52;;
40244;SDS011;25963;42.694;23.600;2022-10-20T03:30:08;39.30;;;29.13;;
40244;SDS011;25963;42.694;23.600;2022-10-20T03:32:34;37.33;;;28.40;;
40244;SDS011;25963;42.694;23.600;2022-10-20T03:34:59;37.03;;;28.38;;
40244;SDS011;25963;42.694;23.600;2022-10-20T03:37:25;40.65;;;29.83;;
40244;SDS011;25963;42.694;23.600;2022-10-20T03:39:50;42.03;;;30.60;;
40244;SDS011;25963;42.694;23.600;2022-10-20T03:42:16;37.90;;;28.95;;
40244;SDS011;25963;42.694;23.600;2022-10-20T03:44:41;37.97;;;28.48;;
40244;SDS011;25963;42.694;23.600;2022-10-20T03:47:09;37.67;;;27.85;;
40244;SDS011;25963;42.694;23.600;2022-10-20T03:49:35;39.70;;;29.60;;
40244;SDS011;25963;42.694;23.600;2022-10-20T03:52:01;39.67;;;29.52;;
40244;SDS011;25963;42.694;23.600;2022-10-20T03:54:27;37.33;;;29.02;;
40244;SDS011;25963;42.694;23.600;2022-10-20T03:56:52;40.92;;;29.65;;
40244;SDS011;25963;42.694;23.600;2022-10-20T03:59:18;49.53;;;33.42;;
40244;SDS011;25963;42.694;23.600;2022-10-20T04:01:44;46.13;;;31.80;;
40244;SDS011;25963;42.694;23.600;2022-10-20T04:04:11;44.88;;;32.90;;
40244;SDS011;25963;42.694;23.600;2022-10-20T04:06:36;41.05;;;28.95;;
40244;SDS011;25963;42.694;23.600;2022-10-20T04:09:02;38.92;;;30.20;;
40244;SDS011;25963;42.694;23.600;2022-10-20T04:11:28;43.10;;;29.73;;
40244;SDS011;25963;42.694;23.600;2022-10-20T04:13:54;42.70;;;30.13;;
40244;SDS011;25963;42.694;23.600;2022-10-20T04:16:20;40.67;;;29.83;;
40244;SDS011;25963;42.694;23.600;2022-10-20T04:18:45;42.17;;;31.40;;
40244;SDS011;25963;42.694;23.600;2022-10-20T04:21:11;48.78;;;30.35;;
40244;SDS011;25963;42.694;23.600;2022-10-20T04:23:36;48.65;;;31.73;;
40244;SDS011;25963;42.694;23.600;2022-10-20T04:26:12;46.05;;;32.38;;
40244;SDS011;25963;42.694;23.600;2022-10-20T04:28:39;43.13;;;30.55;;
40244;SDS011;25963;42.694;23.600;2022-10-20T04:31:04;45.80;;;31.75;;
40244;SDS011;25963;42.694;23.600;2022-10-20T04:33:30;41.60;;;29.83;;
40244;SDS011;25963;42.694;23.600;2022-10-20T04:36:00;54.67;;;32.95;;
40244;SDS011;25963;42.694;23.600;2022-10-20T04:38:29;40.63;;;28.75;;
40244;SDS011;25963;42.694;23.600;2022-10-20T04:40:56;44.42;;;31.42;;
40244;SDS011;25963;42.694;23.600;2022-10-20T04:43:23;43.47;;;30.70;;
40244;SDS011;25963;42.694;23.600;2022-10-20T04:45:49;76.45;;;50.33;;
40244;SDS011;25963;42.694;23.600;2022-10-20T04:48:15;104.60;;;64.35;;
40244;SDS011;25963;42.694;23.600;2022-10-20T04:50:41;168.88;;;98.50;;
40244;SDS011;25963;42.694;23.600;2022-10-20T04:53:07;58.13;;;38.63;;
40244;SDS011;25963;42.694;23.600;2022-10-20T04:55:32;71.63;;;47.10;;
40244;SDS011;25963;42.694;23.600;2022-10-20T04:57:58;47.95;;;32.67;;
40244;SDS011;25963;42.694;23.600;2022-10-20T05:00:24;47.67;;;31.42;;
40244;SDS011;25963;42.694;23.600;2022-10-20T05:02:49;40.33;;;31.08;;
40244;SDS011;25963;42.694;23.600;2022-10-20T05:05:15;42.42;;;31.40;;
40244;SDS011;25963;42.694;23.600;2022-10-20T05:07:40;44.28;;;30.95;;
40244;SDS011;25963;42.694;23.600;2022-10-20T05:10:06;50.15;;;36.03;;
40244;SDS011;25963;42.694;23.600;2022-10-20T05:12:31;75.50;;;53.08;;
40244;SDS011;25963;42.694;23.600;2022-10-20T05:14:57;47.65;;;35.13;;
40244;SDS011;25963;42.694;23.600;2022-10-20T05:17:23;55.10;;;33.45;;
40244;SDS011;25963;42.694;23.600;2022-10-20T05:19:48;45.42;;;33.35;;
40244;SDS011;25963;42.694;23.600;2022-10-20T05:22:13;44.70;;;30.02;;
40244;SDS011;25963;42.694;23.600;2022-10-20T05:24:39;37.67;;;27.38;;
40244;SDS011;25963;42.694;23.600;2022-10-20T05:27:04;34.67;;;25.23;;
40244;SDS011;25963;42.694;23.600;2022-10-20T05:29:30;34.63;;;25.10;;
40244;SDS011;25963;42.694;23.600;2022-10-20T05:31:55;41.10;;;27.60;;
40244;SDS011;25963;42.694;23.600;2022-10-20T05:34:21;42.88;;;28.02;;
40244;SDS011;25963;42.694;23.600;2022-10-20T05:36:46;40.55;;;26.45;;
40244;SDS011;25963;42.694;23.600;2022-10-20T05:39:11;35.13;;;24.20;;
40244;SDS011;25963;42.694;23.600;2022-10-20T05:41:37;37.88;;;24.63;;
40244;SDS011;25963;42.694;23.600;2022-10-20T05:44:04;30.40;;;23.92;;
40244;SDS011;25963;42.694;23.600;2022-10-20T05:46:31;32.35;;;22.20;;
40244;SDS011;25963;42.694;23.600;2022-10-20T05:48:59;28.50;;;22.45;;
40244;SDS011;25963;42.694;23.600;2022-10-20T05:51:27;33.90;;;22.88;;
40244;SDS011;25963;42.694;23.600;2022-10-20T05:53:55;26.30;;;19.95;;
40244;SDS011;25963;42.694;23.600;2022-10-20T05:56:22;27.92;;;20.73;;
40244;SDS011;25963;42.694;23.600;2022-10-20T05:58:49;26.55;;;20.08;;
40244;SDS011;25963;42.694;23.600;2022-10-20T06:01:25;28.88;;;20.88;;
40244;SDS011;25963;42.694;23.600;2022-10-20T06:06:23;26.50;;;21.70;;
40244;SDS011;25963;42.694;23.600;2022-10-20T06:08:50;30.48;;;24.05;;
40244;SDS011;25963;42.694;23.600;2022-10-20T06:11:16;34.90;;;23.80;;
40244;SDS011;25963;42.694;23.600;2022-10-20T06:13:42;45.42;;;30.75;;
40244;SDS011;25963;42.694;23.600;2022-10-20T06:16:09;44.35;;;27.13;;
40244;SDS011;25963;42.694;23.600;2022-10-20T06:18:39;35.83;;;22.42;;
40244;SDS011;25963;42.694;23.600;2022-10-20T06:21:11;37.22;;;25.55;;
40244;SDS011;25963;42.694;23.600;2022-10-20T06:23:41;68.82;;;35.67;;
40244;SDS011;25963;42.694;23.600;2022-10-20T06:26:07;33.75;;;24.52;;
40244;SDS011;25963;42.694;23.600;2022-10-20T06:28:35;32.85;;;25.10;;
40244;SDS011;25963;42.694;23.600;2022-10-20T06:31:12;36.50;;;23.88;;
40244;SDS011;25963;42.694;23.600;2022-10-20T06:33:39;32.33;;;25.95;;
40244;SDS011;25963;42.694;23.600;2022-10-20T06:36:05;29.23;;;23.90;;
40244;SDS011;25963;42.694;23.600;2022-10-20T06:38:31;30.67;;;22.23;;
40244;SDS011;25963;42.694;23.600;2022-10-20T06:40:59;28.48;;;21.55;;
40244;SDS011;25963;42.694;23.600;2022-10-20T06:43:29;28.90;;;21.02;;
40244;SDS011;25963;42.694;23.600;2022-10-20T06:45:59;28.17;;;22.42;;
40244;SDS011;25963;42.694;23.600;2022-10-20T06:48:26;28.02;;;22.17;;
40244;SDS011;25963;42.694;23.600;2022-10-20T06:50:56;36.33;;;23.55;;
40244;SDS011;25963;42.694;23.600;2022-10-20T06:53:22;50.70;;;30.25;;
40244;SDS011;25963;42.694;23.600;2022-10-20T06:55:55;46.67;;;30.65;;
40244;SDS011;25963;42.694;23.600;2022-10-20T06:58:25;51.65;;;40.55;;
40244;SDS011;25963;42.694;23.600;2022-10-20T07:01:02;45.72;;;32.40;;
40244;SDS011;25963;42.694;23.600;2022-10-20T07:03:28;31.42;;;25.25;;
40244;SDS011;25963;42.694;23.600;2022-10-20T07:05:54;27.83;;;21.58;;
40244;SDS011;25963;42.694;23.600;2022-10-20T07:08:21;23.38;;;20.65;;
40244;SDS011;25963;42.694;23.600;2022-10-20T07:10:47;22.05;;;19.65;;
40244;SDS011;25963;42.694;23.600;2022-10-20T07:13:20;26.38;;;20.23;;
40244;SDS011;25963;42.694;23.600;2022-10-20T07:15:46;22.02;;;18.08;;
40244;SDS011;25963;42.694;23.600;2022-10-20T07:18:11;21.52;;;18.23;;
40244;SDS011;25963;42.694;23.600;2022-10-20T07:20:37;22.58;;;18.33;;
40244;SDS011;25963;42.694;23.600;2022-10-20T07:23:02;20.70;;;17.58;;
40244;SDS011;25963;42.694;23.600;2022-10-20T07:25:28;24.17;;;18.38;;
40244;SDS011;25963;42.694;23.600;2022-10-20T07:27:54;23.45;;;18.25;;
40244;SDS011;25963;42.694;23.600;2022-10-20T07:30:19;21.00;;;17.90;;
40244;SDS011;25963;42.694;23.600;2022-10-20T07:32:45;21.42;;;17.95;;
40244;SDS011;25963;42.694;23.600;2022-10-20T07:35:10;27.13;;;18.92;;
40244;SDS011;25963;42.694;23.600;2022-10-20T07:37:38;30.92;;;18.95;;
40244;SDS011;25963;42.694;23.600;2022-10-20T07:40:03;28.08;;;18.15;;
40244;SDS011;25963;42.694;23.600;2022-10-20T07:42:29;22.08;;;16.63;;
40244;SDS011;25963;42.694;23.600;2022-10-20T07:44:54;18.80;;;15.80;;
40244;SDS011;25963;42.694;23.600;2022-10-20T07:47:20;28.02;;;17.20;;
40244;SDS011;25963;42.694;23.600;2022-10-20T07:49:45;16.30;;;14.52;;
40244;SDS011;25963;42.694;23.600;2022-10-20T07:52:11;25.83;;;16.15;;
40244;SDS011;25963;42.694;23.600;2022-10-20T07:54:36;39.72;;;15.98;;
40244;SDS011;25963;42.694;23.600;2022-10-20T07:57:02;27.67;;;15.48;;
40244;SDS011;25963;42.694;23.600;2022-10-20T07:59:27;17.95;;;14.95;;
40244;SDS011;25963;42.694;23.600;2022-10-20T08:01:53;20.17;;;15.10;;
40244;SDS011;25963;42.694;23.600;2022-10-20T08:04:19;18.98;;;13.52;;
40244;SDS011;25963;42.694;23.600;2022-10-20T08:06:44;22.73;;;15.05;;
40244;SDS011;25963;42.694;23.600;2022-10-20T08:09:11;19.70;;;14.18;;
40244;SDS011;25963;42.694;23.600;2022-10-20T08:11:36;17.23;;;15.43;;
40244;SDS011;25963;42.694;23.600;2022-10-20T08:14:02;20.27;;;15.57;;
40244;SDS011;25963;42.694;23.600;2022-10-20T08:16:27;18.55;;;14.80;;
40244;SDS011;25963;42.694;23.600;2022-10-20T08:18:53;24.30;;;15.35;;
40244;SDS011;25963;42.694;23.600;2022-10-20T08:21:19;17.20;;;14.05;;
40244;SDS011;25963;42.694;23.600;2022-10-20T08:23:47;23.58;;;15.27;;
40244;SDS011;25963;42.694;23.600;2022-10-20T08:26:17;25.88;;;15.55;;
40244;SDS011;25963;42.694;23.600;2022-10-20T08:28:45;19.60;;;14.00;;
40244;SDS011;25963;42.694;23.600;2022-10-20T08:31:11;16.73;;;13.50;;
40244;SDS011;25963;42.694;23.600;2022-10-20T08:33:37;17.52;;;13.32;;
40244;SDS011;25963;42.694;23.600;2022-10-20T08:36:05;20.17;;;13.10;;
40244;SDS011;25963;42.694;23.600;2022-10-20T08:38:33;20.98;;;13.88;;
40244;SDS011;25963;42.694;23.600;2022-10-20T08:40:59;24.10;;;14.25;;
40244;SDS011;25963;42.694;23.600;2022-10-20T08:43:25;19.73;;;14.75;;
40244;SDS011;25963;42.694;23.600;2022-10-20T08:45:52;17.48;;;13.93;;
40244;SDS011;25963;42.694;23.600;2022-10-20T08:48:19;38.13;;;15.82;;
40244;SDS011;25963;42.694;23.600;2022-10-20T08:50:48;19.23;;;12.52;;
40244;SDS011;25963;42.694;23.600;2022-10-20T08:53:16;21.50;;;12.00;;
40244;SDS011;25963;42.694;23.600;2022-10-20T08:55:43;14.10;;;11.35;;
40244;SDS011;25963;42.694;23.600;2022-10-20T08:58:13;17.67;;;12.73;;
40244;SDS011;25963;42.694;23.600;2022-10-20T09:03:13;10.18;;;9.15;;
40244;SDS011;25963;42.694;23.600;2022-10-20T09:05:42;13.60;;;8.40;;
40244;SDS011;25963;42.694;23.600;2022-10-20T09:08:10;13.63;;;9.05;;
40244;SDS011;25963;42.694;23.600;2022-10-20T09:10:37;13.38;;;9.75;;
40244;SDS011;25963;42.694;23.600;2022-10-20T09:13:08;12.65;;;8.60;;
40244;SDS011;25963;42.694;23.600;2022-10-20T09:15:40;9.90;;;8.05;;
40244;SDS011;25963;42.694;23.600;2022-10-20T09:18:08;12.85;;;8.63;;
40244;SDS011;25963;42.694;23.600;2022-10-20T09:20:38;10.80;;;6.78;;
40244;SDS011;25963;42.694;23.600;2022-10-20T09:23:13;8.93;;;7.65;;
40244;SDS011;25963;42.694;23.600;2022-10-20T09:28:15;8.55;;;7.03;;
40244;SDS011;25963;42.694;23.600;2022-10-20T09:30:51;17.35;;;7.45;;
40244;SDS011;25963;42.694;23.600;2022-10-20T09:33:22;18.60;;;7.90;;
40244;SDS011;25963;42.694;23.600;2022-10-20T09:35:53;14.73;;;7.25;;
40244;SDS011;25963;42.694;23.600;2022-10-20T09:38:48;10.18;;;7.25;;
40244;SDS011;25963;42.694;23.600;2022-10-20T09:41:16;9.23;;;5.93;;
40244;SDS011;25963;42.694;23.600;2022-10-20T09:46:31;7.07;;;6.03;;
40244;SDS011;25963;42.694;23.600;2022-10-20T09:49:03;17.42;;;9.63;;
40244;SDS011;25963;42.694;23.600;2022-10-20T09:51:31;10.63;;;5.45;;
40244;SDS011;25963;42.694;23.600;2022-10-20T09:54:03;5.85;;;5.13;;
40244;SDS011;25963;42.694;23.600;2022-10-20T09:56:35;7.55;;;5.97;;
40244;SDS011;25963;42.694;23.600;2022-10-20T10:01:31;5.97;;;5.00;;
40244;SDS011;25963;42.694;23.600;2022-10-20T10:03:57;9.80;;;5.35;;
40244;SDS011;25963;42.694;23.600;2022-10-20T10:08:54;10.43;;;5.25;;
40244;SDS011;25963;42.694;23.600;2022-10-20T10:11:23;7.20;;;5.43;;
40244;SDS011;25963;42.694;23.600;2022-10-20T10:13:54;10.10;;;5.28;;
40244;SDS011;25963;42.694;23.600;2022-10-20T10:16:20;8.65;;;5.03;;
40244;SDS011;25963;42.694;23.600;2022-10-20T10:32:57;6.45;;;5.82;;
40244;SDS011;25963;42.694;23.600;2022-10-20T10:37:57;7.50;;;5.88;;
40244;SDS011;25963;42.694;23.600;2022-10-20T10:40:31;6.80;;;6.20;;
40244;SDS011;25963;42.694;23.600;2022-10-20T10:43:04;9.63;;;7.18;;
40244;SDS011;25963;42.694;23.600;2022-10-20T10:48:38;6.97;;;5.43;;
40244;SDS011;25963;42.694;23.600;2022-10-20T10:51:01;8.10;;;5.82;;
40244;SDS011;25963;42.694;23.600;2022-10-20T11:01:02;6.78;;;5.63;;
40244;SDS011;25963;42.694;23.600;2022-10-20T11:21:15;5.57;;;5.07;;
40244;SDS011;25963;42.694;23.600;2022-10-20T11:26:33;8.50;;;6.00;;
40244;SDS011;25963;42.694;23.600;2022-10-20T11:29:02;6.50;;;5.60;;
40244;SDS011;25963;42.694;23.600;2022-10-20T11:31:45;7.53;;;5.10;;
40244;SDS011;25963;42.694;23.600;2022-10-20T11:34:27;7.65;;;5.55;;
40244;SDS011;25963;42.694;23.600;2022-10-20T11:37:11;11.57;;;5.97;;
40244;SDS011;25963;42.694;23.600;2022-10-20T11:39:45;7.03;;;5.50;;
40244;SDS011;25963;42.694;23.600;2022-10-20T11:48:03;22.67;;;5.63;;
40244;SDS011;25963;42.694;23.600;2022-10-20T11:50:36;9.23;;;5.28;;
40244;SDS011;25963;42.694;23.600;2022-10-20T11:55:58;6.28;;;5.20;;
40244;SDS011;25963;42.694;23.600;2022-10-20T12:01:17;7.28;;;5.32;;
40244;SDS011;25963;42.694;23.600;2022-10-20T12:06:55;9.15;;;5.90;;
40244;SDS011;25963;42.694;23.600;2022-10-20T12:14:42;7.13;;;5.47;;
40244;SDS011;25963;42.694;23.600;2022-10-20T12:17:15;6.88;;;4.57;;
40244;SDS011;25963;42.694;23.600;2022-10-20T12:19:47;12.20;;;5.20;;
40244;SDS011;25963;42.694;23.600;2022-10-20T12:27:21;10.10;;;4.72;;
40244;SDS011;25963;42.694;23.600;2022-10-20T12:34:46;8.95;;;5.15;;
40244;SDS011;25963;42.694;23.600;2022-10-20T12:37:23;11.07;;;5.25;;
40244;SDS011;25963;42.694;23.600;2022-10-20T12:39:49;4.75;;;3.95;;
40244;SDS011;25963;42.694;23.600;2022-10-20T12:44:55;8.82;;;5.03;;
40244;SDS011;25963;42.694;23.600;2022-10-20T12:47:28;6.38;;;4.32;;
40244;SDS011;25963;42.694;23.600;2022-10-20T12:49:57;8.70;;;5.10;;
40244;SDS011;25963;42.694;23.600;2022-10-20T12:52:27;8.52;;;5.93;;
40244;SDS011;25963;42.694;23.600;2022-10-20T12:57:33;20.00;;;11.27;;
40244;SDS011;25963;42.694;23.600;2022-10-20T13:02:47;6.18;;;4.68;;
40244;SDS011;25963;42.694;23.600;2022-10-20T13:12:52;5.97;;;4.70;;
40244;SDS011;25963;42.694;23.600;2022-10-20T13:18:20;6.63;;;5.13;;
40244;SDS011;25963;42.694;23.600;2022-10-20T13:21:02;5.30;;;4.65;;
40244;SDS011;25963;42.694;23.600;2022-10-20T13:28:48;11.93;;;4.78;;
40244;SDS011;25963;42.694;23.600;2022-10-20T13:44:57;9.30;;;5.40;;
40244;SDS011;25963;42.694;23.600;2022-10-20T13:47:54;8.98;;;4.32;;
40244;SDS011;25963;42.694;23.600;2022-10-20T13:50:26;7.68;;;4.70;;
40244;SDS011;25963;42.694;23.600;2022-10-20T13:53:01;27.20;;;5.65;;
40244;SDS011;25963;42.694;23.600;2022-10-20T13:55:53;8.70;;;4.25;;
40244;SDS011;25963;42.694;23.600;2022-10-20T13:58:30;9.13;;;3.78;;
40244;SDS011;25963;42.694;23.600;2022-10-20T14:00:59;8.57;;;4.57;;
40244;SDS011;25963;42.694;23.600;2022-10-20T14:03:26;7.25;;;4.70;;
40244;SDS011;25963;42.694;23.600;2022-10-20T14:05:53;15.90;;;5.95;;
40244;SDS011;25963;42.694;23.600;2022-10-20T14:08:19;7.53;;;5.22;;
40244;SDS011;25963;42.694;23.600;2022-10-20T14:13:32;8.00;;;4.65;;
40244;SDS011;25963;42.694;23.600;2022-10-20T14:16:00;9.63;;;5.40;;
40244;SDS011;25963;42.694;23.600;2022-10-20T14:18:30;9.70;;;4.72;;
40244;SDS011;25963;42.694;23.600;2022-10-20T14:21:07;8.60;;;6.80;;
40244;SDS011;25963;42.694;23.600;2022-10-20T14:23:40;5.13;;;4.25;;
40244;SDS011;25963;42.694;23.600;2022-10-20T14:26:16;10.05;;;4.40;;
40244;SDS011;25963;42.694;23.600;2022-10-20T14:28:44;7.78;;;5.45;;
40244;SDS011;25963;42.694;23.600;2022-10-20T14:31:11;12.35;;;7.60;;
40244;SDS011;25963;42.694;23.600;2022-10-20T14:33:44;7.75;;;4.68;;
40244;SDS011;25963;42.694;23.600;2022-10-20T14:36:30;9.48;;;5.50;;
40244;SDS011;25963;42.694;23.600;2022-10-20T14:38:56;9.65;;;5.72;;
40244;SDS011;25963;42.694;23.600;2022-10-20T14:41:33;5.88;;;4.63;;
40244;SDS011;25963;42.694;23.600;2022-10-20T14:44:00;12.55;;;4.53;;
40244;SDS011;25963;42.694;23.600;2022-10-20T14:46:29;6.72;;;4.18;;
40244;SDS011;25963;42.694;23.600;2022-10-20T14:48:57;8.73;;;4.05;;
40244;SDS011;25963;42.694;23.600;2022-10-20T14:51:52;6.70;;;4.00;;
40244;SDS011;25963;42.694;23.600;2022-10-20T14:56:56;5.88;;;3.63;;
40244;SDS011;25963;42.694;23.600;2022-10-20T14:59:24;5.53;;;4.03;;
40244;SDS011;25963;42.694;23.600;2022-10-20T15:02:08;6.07;;;3.78;;
40244;SDS011;25963;42.694;23.600;2022-10-20T15:04:42;5.88;;;4.25;;
40244;SDS011;25963;42.694;23.600;2022-10-20T15:12:19;6.43;;;3.85;;
40244;SDS011;25963;42.694;23.600;2022-10-20T15:14:48;8.07;;;4.00;;
40244;SDS011;25963;42.694;23.600;2022-10-20T15:17:29;9.13;;;5.18;;
40244;SDS011;25963;42.694;23.600;2022-10-20T15:20:21;8.70;;;4.88;;
40244;SDS011;25963;42.694;23.600;2022-10-20T15:22:56;6.25;;;4.75;;
40244;SDS011;25963;42.694;23.600;2022-10-20T15:25:26;9.02;;;4.53;;
40244;SDS011;25963;42.694;23.600;2022-10-20T15:27:54;12.98;;;5.25;;
40244;SDS011;25963;42.694;23.600;2022-10-20T15:30:20;10.40;;;5.10;;
40244;SDS011;25963;42.694;23.600;2022-10-20T15:32:47;10.80;;;4.95;;
40244;SDS011;25963;42.694;23.600;2022-10-20T15:35:14;13.65;;;7.47;;
40244;SDS011;25963;42.694;23.600;2022-10-20T15:37:43;10.07;;;6.10;;
40244;SDS011;25963;42.694;23.600;2022-10-20T15:40:12;11.05;;;7.18;;
40244;SDS011;25963;42.694;23.600;2022-10-20T15:42:37;12.23;;;6.40;;
40244;SDS011;25963;42.694;23.600;2022-10-20T15:45:09;13.48;;;7.43;;
40244;SDS011;25963;42.694;23.600;2022-10-20T15:47:41;11.55;;;5.55;;
40244;SDS011;25963;42.694;23.600;2022-10-20T15:50:06;40.47;;;17.73;;
40244;SDS011;25963;42.694;23.600;2022-10-20T15:52:32;18.48;;;11.32;;
40244;SDS011;25963;42.694;23.600;2022-10-20T15:54:58;14.25;;;7.78;;
40244;SDS011;25963;42.694;23.600;2022-10-20T15:57:23;27.30;;;8.50;;
40244;SDS011;25963;42.694;23.600;2022-10-20T15:59:49;31.77;;;7.65;;
40244;SDS011;25963;42.694;23.600;2022-10-20T16:02:14;30.88;;;8.30;;
40244;SDS011;25963;42.694;23.600;2022-10-20T16:04:39;14.98;;;8.07;;
40244;SDS011;25963;42.694;23.600;2022-10-20T16:07:05;10.70;;;6.45;;
40244;SDS011;25963;42.694;23.600;2022-10-20T16:09:30;9.77;;;5.15;;
40244;SDS011;25963;42.694;23.600;2022-10-20T16:11:56;9.73;;;5.18;;
40244;SDS011;25963;42.694;23.600;2022-10-20T16:14:21;8.80;;;4.63;;
40244;SDS011;25963;42.694;23.600;2022-10-20T16:16:46;10.18;;;5.07;;
40244;SDS011;25963;42.694;23.600;2022-10-20T16:19:12;10.18;;;5.38;;
40244;SDS011;25963;42.694;23.600;2022-10-20T16:21:37;12.77;;;7.57;;
40244;SDS011;25963;42.694;23.600;2022-10-20T16:24:03;11.75;;;6.05;;
40244;SDS011;25963;42.694;23.600;2022-10-20T16:26:29;23.95;;;9.32;;
40244;SDS011;25963;42.694;23.600;2022-10-20T16:28:54;11.98;;;7.93;;
40244;SDS011;25963;42.694;23.600;2022-10-20T16:31:20;26.17;;;17.77;;
40244;SDS011;25963;42.694;23.600;2022-10-20T16:33:45;23.75;;;16.15;;
40244;SDS011;25963;42.694;23.600;2022-10-20T16:36:11;25.55;;;16.40;;
40244;SDS011;25963;42.694;23.600;2022-10-20T16:38:39;31.65;;;18.70;;
40244;SDS011;25963;42.694;23.600;2022-10-20T16:41:06;34.40;;;20.15;;
40244;SDS011;25963;42.694;23.600;2022-10-20T16:43:40;32.47;;;19.02;;
40244;SDS011;25963;42.694;23.600;2022-10-20T16:46:07;30.58;;;17.38;;
40244;SDS011;25963;42.694;23.600;2022-10-20T16:48:34;13.57;;;10.20;;
40244;SDS011;25963;42.694;23.600;2022-10-20T16:51:03;16.85;;;12.52;;
40244;SDS011;25963;42.694;23.600;2022-10-20T16:53:33;12.93;;;10.35;;
40244;SDS011;25963;42.694;23.600;2022-10-20T16:55:59;19.65;;;11.57;;
40244;SDS011;25963;42.694;23.600;2022-10-20T16:58:25;15.25;;;10.68;;
40244;SDS011;25963;42.694;23.600;2022-10-20T17:01:24;14.57;;;10.80;;
40244;SDS011;25963;42.694;23.600;2022-10-20T17:03:48;16.35;;;11.27;;